sensor_id;sensor_type;location;lat;lon;timestamp;P1;durP1;ratioP1;P2;durP2;ratioP2
76495;SDS011;65329;52.544;4.662;2022-12-29T00:00:14;2.53;;;1.40;;
76495;SDS011;65329;52.544;4.662;2022-12-29T00:02:41;4.18;;;1.77;;
76495;SDS011;65329;52.544;4.662;2022-12-29T00:05:08;10.48;;;3.95;;
76495;SDS011;65329;52.544;4.662;2022-12-29T00:07:35;3.78;;;1.90;;
76495;SDS011;65329;52.544;4.662;2022-12-29T00:10:02;3.78;;;2.20;;
76495;SDS011;65329;52.544;4.662;2022-12-29T00:12:29;4.88;;;2.13;;
76495;SDS011;65329;52.544;4.662;2022-12-29T00:15:15;4.22;;;1.58;;
76495;SDS011;65329;52.544;4.662;2022-12-29T00:18:01;6.43;;;2.50;;
76495;SDS011;65329;52.544;4.662;2022-12-29T00:20:27;2.75;;;1.90;;
76495;SDS011;65329;52.544;4.662;2022-12-29T00:23:13;5.10;;;2.15;;
76495;SDS011;65329;52.544;4.662;2022-12-29T00:26:13;3.67;;;1.85;;
76495;SDS011;65329;52.544;4.662;2022-12-29T00:28:59;6.45;;;1.55;;
76495;SDS011;65329;52.544;4.662;2022-12-29T00:31:45;3.97;;;1.67;;
76495;SDS011;65329;52.544;4.662;2022-12-29T00:34:37;3.33;;;1.58;;
76495;SDS011;65329;52.544;4.662;2022-12-29T00:37:22;5.43;;;1.40;;
76495;SDS011;65329;52.544;4.662;2022-12-29T00:40:09;5.93;;;1.63;;
76495;SDS011;65329;52.544;4.662;2022-12-29T00:42:54;4.85;;;1.55;;
76495;SDS011;65329;52.544;4.662;2022-12-29T00:45:40;4.30;;;1.45;;
76495;SDS011;65329;52.544;4.662;2022-12-29T00:48:08;1.90;;;1.50;;
76495;SDS011;65329;52.544;4.662;2022-12-29T00:50:35;5.10;;;2.05;;
76495;SDS011;65329;52.544;4.662;2022-12-29T00:53:01;3.83;;;1.95;;
76495;SDS011;65329;52.544;4.662;2022-12-29T00:55:28;3.80;;;1.67;;
76495;SDS011;65329;52.544;4.662;2022-12-29T00:57:55;3.72;;;1.90;;
76495;SDS011;65329;52.544;4.662;2022-12-29T01:00:21;3.50;;;1.50;;
76495;SDS011;65329;52.544;4.662;2022-12-29T01:02:48;4.90;;;1.48;;
76495;SDS011;65329;52.544;4.662;2022-12-29T01:05:15;3.42;;;1.45;;
76495;SDS011;65329;52.544;4.662;2022-12-29T01:07:44;3.88;;;1.33;;
76495;SDS011;65329;52.544;4.662;2022-12-29T01:10:11;4.40;;;1.77;;
76495;SDS011;65329;52.544;4.662;2022-12-29T01:12:37;2.50;;;1.65;;
76495;SDS011;65329;52.544;4.662;2022-12-29T01:15:09;2.95;;;1.40;;
76495;SDS011;65329;52.544;4.662;2022-12-29T01:17:37;4.35;;;1.65;;
76495;SDS011;65329;52.544;4.662;2022-12-29T01:20:04;7.57;;;2.50;;
76495;SDS011;65329;52.544;4.662;2022-12-29T01:22:31;4.90;;;1.70;;
76495;SDS011;65329;52.544;4.662;2022-12-29T01:24:57;3.45;;;1.70;;
76495;SDS011;65329;52.544;4.662;2022-12-29T01:27:24;4.63;;;1.60;;
76495;SDS011;65329;52.544;4.662;2022-12-29T01:29:51;3.65;;;1.40;;
76495;SDS011;65329;52.544;4.662;2022-12-29T01:32:17;4.07;;;1.65;;
76495;SDS011;65329;52.544;4.662;2022-12-29T01:34:44;5.05;;;1.38;;
76495;SDS011;65329;52.544;4.662;2022-12-29T01:37:11;3.80;;;1.30;;
76495;SDS011;65329;52.544;4.662;2022-12-29T01:39:38;3.58;;;1.20;;
76495;SDS011;65329;52.544;4.662;2022-12-29T01:42:14;2.38;;;1.40;;
76495;SDS011;65329;52.544;4.662;2022-12-29T01:44:56;3.88;;;1.15;;
76495;SDS011;65329;52.544;4.662;2022-12-29T01:47:28;3.60;;;1.40;;
76495;SDS011;65329;52.544;4.662;2022-12-29T01:50:00;8.15;;;1.55;;
76495;SDS011;65329;52.544;4.662;2022-12-29T01:52:32;3.35;;;1.10;;
76495;SDS011;65329;52.544;4.662;2022-12-29T01:55:02;3.67;;;1.35;;
76495;SDS011;65329;52.544;4.662;2022-12-29T01:57:32;5.45;;;1.50;;
76495;SDS011;65329;52.544;4.662;2022-12-29T02:00:10;5.45;;;2.00;;
76495;SDS011;65329;52.544;4.662;2022-12-29T02:02:43;4.85;;;1.40;;
76495;SDS011;65329;52.544;4.662;2022-12-29T02:05:47;12.85;;;2.05;;
76495;SDS011;65329;52.544;4.662;2022-12-29T02:08:17;5.15;;;1.67;;
76495;SDS011;65329;52.544;4.662;2022-12-29T02:10:44;5.28;;;1.20;;
76495;SDS011;65329;52.544;4.662;2022-12-29T02:13:11;4.72;;;1.00;;
76495;SDS011;65329;52.544;4.662;2022-12-29T02:18:36;5.45;;;1.40;;
76495;SDS011;65329;52.544;4.662;2022-12-29T02:29:40;8.00;;;1.02;;
76495;SDS011;65329;52.544;4.662;2022-12-29T02:35:29;5.07;;;1.13;;
76495;SDS011;65329;52.544;4.662;2022-12-29T02:45:54;8.38;;;2.08;;
76495;SDS011;65329;52.544;4.662;2022-12-29T02:48:29;5.63;;;1.60;;
76495;SDS011;65329;52.544;4.662;2022-12-29T02:50:59;10.75;;;2.50;;
76495;SDS011;65329;52.544;4.662;2022-12-29T02:53:31;8.93;;;1.75;;
76495;SDS011;65329;52.544;4.662;2022-12-29T02:56:19;6.53;;;1.63;;
76495;SDS011;65329;52.544;4.662;2022-12-29T02:58:46;8.93;;;2.03;;
76495;SDS011;65329;52.544;4.662;2022-12-29T03:06:35;8.07;;;1.52;;
76495;SDS011;65329;52.544;4.662;2022-12-29T03:12:31;8.75;;;2.35;;
76495;SDS011;65329;52.544;4.662;2022-12-29T03:15:37;5.65;;;1.45;;
76495;SDS011;65329;52.544;4.662;2022-12-29T03:18:40;6.38;;;1.25;;
76495;SDS011;65329;52.544;4.662;2022-12-29T03:21:19;8.57;;;2.00;;
76495;SDS011;65329;52.544;4.662;2022-12-29T03:24:17;7.55;;;1.58;;
76495;SDS011;65329;52.544;4.662;2022-12-29T03:26:47;13.13;;;2.00;;
76495;SDS011;65329;52.544;4.662;2022-12-29T03:29:17;12.80;;;1.80;;
76495;SDS011;65329;52.544;4.662;2022-12-29T03:31:46;12.82;;;2.13;;
76495;SDS011;65329;52.544;4.662;2022-12-29T03:34:16;9.88;;;1.83;;
76495;SDS011;65329;52.544;4.662;2022-12-29T03:36:58;12.05;;;1.85;;
76495;SDS011;65329;52.544;4.662;2022-12-29T03:39:31;11.45;;;1.85;;
76495;SDS011;65329;52.544;4.662;2022-12-29T03:41:59;10.25;;;2.17;;
76495;SDS011;65329;52.544;4.662;2022-12-29T03:44:34;16.05;;;2.47;;
76495;SDS011;65329;52.544;4.662;2022-12-29T03:47:03;11.80;;;1.65;;
76495;SDS011;65329;52.544;4.662;2022-12-29T03:49:30;9.60;;;2.08;;
76495;SDS011;65329;52.544;4.662;2022-12-29T03:51:57;12.70;;;2.20;;
76495;SDS011;65329;52.544;4.662;2022-12-29T03:54:24;10.27;;;1.90;;
76495;SDS011;65329;52.544;4.662;2022-12-29T03:56:51;14.60;;;2.40;;
76495;SDS011;65329;52.544;4.662;2022-12-29T03:59:29;14.57;;;3.28;;
76495;SDS011;65329;52.544;4.662;2022-12-29T04:01:56;12.70;;;2.50;;
76495;SDS011;65329;52.544;4.662;2022-12-29T04:04:23;10.32;;;2.00;;
76495;SDS011;65329;52.544;4.662;2022-12-29T04:06:50;12.50;;;2.53;;
76495;SDS011;65329;52.544;4.662;2022-12-29T04:09:16;6.38;;;1.50;;
76495;SDS011;65329;52.544;4.662;2022-12-29T04:11:46;15.00;;;2.70;;
76495;SDS011;65329;52.544;4.662;2022-12-29T04:14:13;12.63;;;1.65;;
76495;SDS011;65329;52.544;4.662;2022-12-29T04:16:39;13.82;;;2.88;;
76495;SDS011;65329;52.544;4.662;2022-12-29T04:19:07;7.75;;;2.53;;
76495;SDS011;65329;52.544;4.662;2022-12-29T04:21:35;12.52;;;2.72;;
76495;SDS011;65329;52.544;4.662;2022-12-29T04:24:03;12.48;;;2.30;;
76495;SDS011;65329;52.544;4.662;2022-12-29T04:26:37;10.48;;;3.10;;
76495;SDS011;65329;52.544;4.662;2022-12-29T04:29:23;14.32;;;2.90;;
76495;SDS011;65329;52.544;4.662;2022-12-29T04:32:06;10.40;;;2.83;;
76495;SDS011;65329;52.544;4.662;2022-12-29T04:34:37;13.82;;;2.78;;
76495;SDS011;65329;52.544;4.662;2022-12-29T04:37:04;9.43;;;2.13;;
76495;SDS011;65329;52.544;4.662;2022-12-29T04:39:30;11.10;;;2.53;;
76495;SDS011;65329;52.544;4.662;2022-12-29T04:41:59;11.90;;;2.42;;
76495;SDS011;65329;52.544;4.662;2022-12-29T04:44:26;14.80;;;2.72;;
76495;SDS011;65329;52.544;4.662;2022-12-29T04:47:02;9.90;;;2.65;;
76495;SDS011;65329;52.544;4.662;2022-12-29T04:49:59;12.63;;;2.05;;
76495;SDS011;65329;52.544;4.662;2022-12-29T04:52:57;12.00;;;2.33;;
76495;SDS011;65329;52.544;4.662;2022-12-29T04:55:25;9.05;;;2.35;;
76495;SDS011;65329;52.544;4.662;2022-12-29T04:57:52;11.48;;;2.17;;
76495;SDS011;65329;52.544;4.662;2022-12-29T05:00:19;12.88;;;2.25;;
76495;SDS011;65329;52.544;4.662;2022-12-29T05:02:46;16.77;;;3.13;;
76495;SDS011;65329;52.544;4.662;2022-12-29T05:05:15;12.38;;;2.47;;
76495;SDS011;65329;52.544;4.662;2022-12-29T05:07:46;11.95;;;2.50;;
76495;SDS011;65329;52.544;4.662;2022-12-29T05:10:13;10.43;;;1.77;;
76495;SDS011;65329;52.544;4.662;2022-12-29T05:12:40;13.32;;;3.08;;
76495;SDS011;65329;52.544;4.662;2022-12-29T05:15:07;14.38;;;3.47;;
76495;SDS011;65329;52.544;4.662;2022-12-29T05:17:35;13.75;;;2.65;;
76495;SDS011;65329;52.544;4.662;2022-12-29T05:20:05;14.20;;;2.80;;
76495;SDS011;65329;52.544;4.662;2022-12-29T05:22:34;14.57;;;3.00;;
76495;SDS011;65329;52.544;4.662;2022-12-29T05:25:01;10.57;;;2.30;;
76495;SDS011;65329;52.544;4.662;2022-12-29T05:27:31;10.50;;;2.35;;
76495;SDS011;65329;52.544;4.662;2022-12-29T05:30:08;10.02;;;3.53;;
76495;SDS011;65329;52.544;4.662;2022-12-29T05:32:35;11.93;;;2.22;;
76495;SDS011;65329;52.544;4.662;2022-12-29T05:35:02;16.40;;;2.72;;
76495;SDS011;65329;52.544;4.662;2022-12-29T05:37:31;11.48;;;2.47;;
76495;SDS011;65329;52.544;4.662;2022-12-29T05:39:58;13.48;;;2.90;;
76495;SDS011;65329;52.544;4.662;2022-12-29T05:42:26;12.15;;;2.53;;
76495;SDS011;65329;52.544;4.662;2022-12-29T05:45:16;15.80;;;2.88;;
76495;SDS011;65329;52.544;4.662;2022-12-29T05:47:52;10.85;;;2.20;;
76495;SDS011;65329;52.544;4.662;2022-12-29T05:50:38;11.90;;;2.70;;
76495;SDS011;65329;52.544;4.662;2022-12-29T05:53:10;9.48;;;2.13;;
76495;SDS011;65329;52.544;4.662;2022-12-29T05:55:37;14.10;;;2.42;;
76495;SDS011;65329;52.544;4.662;2022-12-29T05:58:11;10.27;;;3.00;;
76495;SDS011;65329;52.544;4.662;2022-12-29T06:00:40;20.77;;;4.05;;
76495;SDS011;65329;52.544;4.662;2022-12-29T06:03:08;12.52;;;2.75;;
76495;SDS011;65329;52.544;4.662;2022-12-29T06:05:36;12.20;;;2.38;;
76495;SDS011;65329;52.544;4.662;2022-12-29T06:08:03;10.98;;;2.70;;
76495;SDS011;65329;52.544;4.662;2022-12-29T06:10:30;13.90;;;3.33;;
76495;SDS011;65329;52.544;4.662;2022-12-29T06:13:07;16.58;;;2.63;;
76495;SDS011;65329;52.544;4.662;2022-12-29T06:15:36;7.97;;;1.90;;
76495;SDS011;65329;52.544;4.662;2022-12-29T06:18:06;16.25;;;3.05;;
76495;SDS011;65329;52.544;4.662;2022-12-29T06:20:33;16.92;;;3.63;;
76495;SDS011;65329;52.544;4.662;2022-12-29T06:23:02;13.43;;;3.42;;
76495;SDS011;65329;52.544;4.662;2022-12-29T06:25:30;13.18;;;3.08;;
76495;SDS011;65329;52.544;4.662;2022-12-29T06:27:58;12.98;;;2.55;;
76495;SDS011;65329;52.544;4.662;2022-12-29T06:30:25;11.63;;;2.85;;
76495;SDS011;65329;52.544;4.662;2022-12-29T06:32:52;14.65;;;2.70;;
76495;SDS011;65329;52.544;4.662;2022-12-29T06:35:19;12.68;;;1.88;;
76495;SDS011;65329;52.544;4.662;2022-12-29T06:37:50;19.30;;;3.95;;
76495;SDS011;65329;52.544;4.662;2022-12-29T06:40:16;10.45;;;2.28;;
76495;SDS011;65329;52.544;4.662;2022-12-29T06:43:18;14.35;;;2.55;;
76495;SDS011;65329;52.544;4.662;2022-12-29T06:46:04;11.23;;;2.72;;
76495;SDS011;65329;52.544;4.662;2022-12-29T06:48:31;12.10;;;2.33;;
76495;SDS011;65329;52.544;4.662;2022-12-29T06:50:57;16.17;;;3.40;;
76495;SDS011;65329;52.544;4.662;2022-12-29T06:53:24;13.98;;;2.70;;
76495;SDS011;65329;52.544;4.662;2022-12-29T06:55:51;11.50;;;2.65;;
76495;SDS011;65329;52.544;4.662;2022-12-29T06:58:17;12.35;;;2.78;;
76495;SDS011;65329;52.544;4.662;2022-12-29T07:00:44;12.27;;;2.58;;
76495;SDS011;65329;52.544;4.662;2022-12-29T07:03:11;9.02;;;2.08;;
76495;SDS011;65329;52.544;4.662;2022-12-29T07:05:37;10.05;;;2.80;;
76495;SDS011;65329;52.544;4.662;2022-12-29T07:08:04;14.25;;;3.83;;
76495;SDS011;65329;52.544;4.662;2022-12-29T07:10:31;19.88;;;2.80;;
76495;SDS011;65329;52.544;4.662;2022-12-29T07:12:58;11.52;;;2.42;;
76495;SDS011;65329;52.544;4.662;2022-12-29T07:15:24;13.05;;;3.28;;
76495;SDS011;65329;52.544;4.662;2022-12-29T07:17:51;17.08;;;3.55;;
76495;SDS011;65329;52.544;4.662;2022-12-29T07:20:18;11.60;;;3.05;;
76495;SDS011;65329;52.544;4.662;2022-12-29T07:22:51;13.88;;;2.70;;
76495;SDS011;65329;52.544;4.662;2022-12-29T07:25:18;19.02;;;3.33;;
76495;SDS011;65329;52.544;4.662;2022-12-29T07:27:45;14.98;;;3.58;;
76495;SDS011;65329;52.544;4.662;2022-12-29T07:30:11;18.88;;;3.35;;
76495;SDS011;65329;52.544;4.662;2022-12-29T07:32:38;16.20;;;3.90;;
76495;SDS011;65329;52.544;4.662;2022-12-29T07:35:05;14.68;;;3.17;;
76495;SDS011;65329;52.544;4.662;2022-12-29T07:37:33;16.60;;;3.60;;
76495;SDS011;65329;52.544;4.662;2022-12-29T07:40:00;16.40;;;2.63;;
76495;SDS011;65329;52.544;4.662;2022-12-29T07:42:30;13.38;;;3.28;;
76495;SDS011;65329;52.544;4.662;2022-12-29T07:44:58;15.43;;;4.00;;
76495;SDS011;65329;52.544;4.662;2022-12-29T07:47:30;14.60;;;2.33;;
76495;SDS011;65329;52.544;4.662;2022-12-29T07:49:56;14.48;;;3.60;;
76495;SDS011;65329;52.544;4.662;2022-12-29T07:52:23;13.88;;;2.72;;
76495;SDS011;65329;52.544;4.662;2022-12-29T07:54:49;15.90;;;2.80;;
76495;SDS011;65329;52.544;4.662;2022-12-29T07:57:16;10.80;;;2.75;;
76495;SDS011;65329;52.544;4.662;2022-12-29T07:59:43;15.82;;;3.42;;
76495;SDS011;65329;52.544;4.662;2022-12-29T08:02:10;20.75;;;3.22;;
76495;SDS011;65329;52.544;4.662;2022-12-29T08:04:38;18.75;;;4.28;;
76495;SDS011;65329;52.544;4.662;2022-12-29T08:07:04;12.75;;;2.67;;
76495;SDS011;65329;52.544;4.662;2022-12-29T08:09:31;17.25;;;3.17;;
76495;SDS011;65329;52.544;4.662;2022-12-29T08:11:58;13.60;;;3.28;;
76495;SDS011;65329;52.544;4.662;2022-12-29T08:14:25;17.90;;;3.47;;
76495;SDS011;65329;52.544;4.662;2022-12-29T08:16:52;19.17;;;3.67;;
76495;SDS011;65329;52.544;4.662;2022-12-29T08:19:18;15.05;;;3.42;;
76495;SDS011;65329;52.544;4.662;2022-12-29T08:21:45;14.95;;;3.35;;
76495;SDS011;65329;52.544;4.662;2022-12-29T08:24:12;15.32;;;3.58;;
76495;SDS011;65329;52.544;4.662;2022-12-29T08:26:39;13.60;;;3.15;;
76495;SDS011;65329;52.544;4.662;2022-12-29T08:29:05;10.05;;;3.03;;
76495;SDS011;65329;52.544;4.662;2022-12-29T08:31:32;14.50;;;3.38;;
76495;SDS011;65329;52.544;4.662;2022-12-29T08:33:59;16.55;;;3.20;;
76495;SDS011;65329;52.544;4.662;2022-12-29T08:36:26;17.52;;;3.13;;
76495;SDS011;65329;52.544;4.662;2022-12-29T08:38:53;12.77;;;2.88;;
76495;SDS011;65329;52.544;4.662;2022-12-29T08:41:20;10.82;;;2.30;;
76495;SDS011;65329;52.544;4.662;2022-12-29T08:43:47;16.48;;;3.15;;
76495;SDS011;65329;52.544;4.662;2022-12-29T08:46:14;14.30;;;3.00;;
76495;SDS011;65329;52.544;4.662;2022-12-29T08:48:42;15.13;;;3.03;;
76495;SDS011;65329;52.544;4.662;2022-12-29T08:51:08;12.55;;;2.42;;
76495;SDS011;65329;52.544;4.662;2022-12-29T08:53:35;11.07;;;2.88;;
76495;SDS011;65329;52.544;4.662;2022-12-29T08:56:02;18.35;;;2.78;;
76495;SDS011;65329;52.544;4.662;2022-12-29T08:58:40;14.68;;;3.17;;
76495;SDS011;65329;52.544;4.662;2022-12-29T09:01:07;11.98;;;2.47;;
76495;SDS011;65329;52.544;4.662;2022-12-29T09:03:34;18.58;;;3.45;;
76495;SDS011;65329;52.544;4.662;2022-12-29T09:06:21;14.68;;;3.05;;
76495;SDS011;65329;52.544;4.662;2022-12-29T09:08:48;8.63;;;2.08;;
76495;SDS011;65329;52.544;4.662;2022-12-29T09:11:17;16.50;;;3.35;;
76495;SDS011;65329;52.544;4.662;2022-12-29T09:13:48;15.65;;;2.67;;
76495;SDS011;65329;52.544;4.662;2022-12-29T09:16:16;10.50;;;2.38;;
76495;SDS011;65329;52.544;4.662;2022-12-29T09:18:43;12.63;;;2.53;;
76495;SDS011;65329;52.544;4.662;2022-12-29T09:21:11;23.52;;;3.97;;
76495;SDS011;65329;52.544;4.662;2022-12-29T09:23:38;17.25;;;3.58;;
76495;SDS011;65329;52.544;4.662;2022-12-29T09:26:06;12.45;;;2.40;;
76495;SDS011;65329;52.544;4.662;2022-12-29T09:28:34;11.73;;;2.50;;
76495;SDS011;65329;52.544;4.662;2022-12-29T09:31:01;13.50;;;2.50;;
76495;SDS011;65329;52.544;4.662;2022-12-29T09:33:28;18.92;;;3.05;;
76495;SDS011;65329;52.544;4.662;2022-12-29T09:35:56;15.50;;;2.83;;
76495;SDS011;65329;52.544;4.662;2022-12-29T09:38:24;14.60;;;2.67;;
76495;SDS011;65329;52.544;4.662;2022-12-29T09:40:53;16.73;;;2.70;;
76495;SDS011;65329;52.544;4.662;2022-12-29T09:48:41;17.00;;;2.90;;
76495;SDS011;65329;52.544;4.662;2022-12-29T09:51:13;8.02;;;2.40;;
76495;SDS011;65329;52.544;4.662;2022-12-29T09:53:43;15.68;;;3.20;;
76495;SDS011;65329;52.544;4.662;2022-12-29T09:56:17;17.73;;;4.00;;
76495;SDS011;65329;52.544;4.662;2022-12-29T09:58:50;9.48;;;1.83;;
76495;SDS011;65329;52.544;4.662;2022-12-29T10:04:13;12.90;;;2.28;;
76495;SDS011;65329;52.544;4.662;2022-12-29T10:09:43;12.80;;;2.95;;
76495;SDS011;65329;52.544;4.662;2022-12-29T10:12:28;16.75;;;2.75;;
76495;SDS011;65329;52.544;4.662;2022-12-29T10:15:33;14.40;;;2.58;;
76495;SDS011;65329;52.544;4.662;2022-12-29T10:21:37;9.93;;;2.53;;
76495;SDS011;65329;52.544;4.662;2022-12-29T10:24:18;13.00;;;2.13;;
76495;SDS011;65329;52.544;4.662;2022-12-29T10:26:47;10.50;;;2.03;;
76495;SDS011;65329;52.544;4.662;2022-12-29T10:29:21;10.82;;;2.10;;
76495;SDS011;65329;52.544;4.662;2022-12-29T10:32:00;10.45;;;2.55;;
76495;SDS011;65329;52.544;4.662;2022-12-29T10:34:45;8.07;;;2.28;;
76495;SDS011;65329;52.544;4.662;2022-12-29T10:45:10;8.02;;;1.70;;
76495;SDS011;65329;52.544;4.662;2022-12-29T10:50:28;8.68;;;2.20;;
76495;SDS011;65329;52.544;4.662;2022-12-29T10:52:57;9.82;;;1.92;;
76495;SDS011;65329;52.544;4.662;2022-12-29T10:55:33;6.15;;;1.52;;
76495;SDS011;65329;52.544;4.662;2022-12-29T10:58:04;10.07;;;2.60;;
76495;SDS011;65329;52.544;4.662;2022-12-29T11:00:33;6.68;;;1.70;;
76495;SDS011;65329;52.544;4.662;2022-12-29T11:08:33;6.85;;;1.30;;
76495;SDS011;65329;52.544;4.662;2022-12-29T11:11:08;11.57;;;1.98;;
76495;SDS011;65329;52.544;4.662;2022-12-29T11:13:56;8.02;;;1.33;;
76495;SDS011;65329;52.544;4.662;2022-12-29T11:16:32;7.07;;;1.50;;
76495;SDS011;65329;52.544;4.662;2022-12-29T11:19:01;8.95;;;1.20;;
76495;SDS011;65329;52.544;4.662;2022-12-29T11:21:36;5.18;;;1.20;;
76495;SDS011;65329;52.544;4.662;2022-12-29T11:26:45;7.80;;;1.50;;
76495;SDS011;65329;52.544;4.662;2022-12-29T11:34:22;9.35;;;1.63;;
76495;SDS011;65329;52.544;4.662;2022-12-29T11:36:58;4.38;;;1.10;;
76495;SDS011;65329;52.544;4.662;2022-12-29T11:39:33;11.35;;;1.70;;
76495;SDS011;65329;52.544;4.662;2022-12-29T11:42:05;8.43;;;1.60;;
76495;SDS011;65329;52.544;4.662;2022-12-29T11:44:41;6.55;;;1.65;;
76495;SDS011;65329;52.544;4.662;2022-12-29T11:47:12;7.47;;;1.17;;
76495;SDS011;65329;52.544;4.662;2022-12-29T11:49:51;6.95;;;1.65;;
76495;SDS011;65329;52.544;4.662;2022-12-29T11:52:22;7.88;;;1.33;;
76495;SDS011;65329;52.544;4.662;2022-12-29T11:54:52;7.53;;;1.63;;
76495;SDS011;65329;52.544;4.662;2022-12-29T11:57:21;4.72;;;1.00;;
76495;SDS011;65329;52.544;4.662;2022-12-29T11:59:50;6.60;;;1.10;;
76495;SDS011;65329;52.544;4.662;2022-12-29T12:05:02;8.85;;;1.52;;
76495;SDS011;65329;52.544;4.662;2022-12-29T12:07:46;11.25;;;1.98;;
76495;SDS011;65329;52.544;4.662;2022-12-29T12:10:23;5.28;;;1.50;;
76495;SDS011;65329;52.544;4.662;2022-12-29T12:16:02;5.95;;;1.80;;
76495;SDS011;65329;52.544;4.662;2022-12-29T12:18:42;7.95;;;2.88;;
76495;SDS011;65329;52.544;4.662;2022-12-29T12:24:30;8.65;;;2.40;;
76495;SDS011;65329;52.544;4.662;2022-12-29T12:27:10;8.80;;;3.10;;
76495;SDS011;65329;52.544;4.662;2022-12-29T12:32:25;4.72;;;1.15;;
76495;SDS011;65329;52.544;4.662;2022-12-29T12:35:00;6.30;;;1.02;;
76495;SDS011;65329;52.544;4.662;2022-12-29T12:58:11;6.90;;;1.20;;
76495;SDS011;65329;52.544;4.662;2022-12-29T13:17:36;6.40;;;1.48;;
76495;SDS011;65329;52.544;4.662;2022-12-29T13:28:17;4.18;;;1.02;;
76495;SDS011;65329;52.544;4.662;2022-12-29T13:31:15;7.03;;;1.15;;
76495;SDS011;65329;52.544;4.662;2022-12-29T13:33:52;6.70;;;2.22;;
76495;SDS011;65329;52.544;4.662;2022-12-29T13:36:45;7.45;;;1.55;;
76495;SDS011;65329;52.544;4.662;2022-12-29T13:39:28;8.07;;;1.20;;
76495;SDS011;65329;52.544;4.662;2022-12-29T13:42:01;14.05;;;1.77;;
76495;SDS011;65329;52.544;4.662;2022-12-29T13:57:35;7.35;;;1.58;;
76495;SDS011;65329;52.544;4.662;2022-12-29T14:00:27;5.10;;;1.38;;
76495;SDS011;65329;52.544;4.662;2022-12-29T14:06:20;18.63;;;2.17;;
76495;SDS011;65329;52.544;4.662;2022-12-29T14:08:49;12.00;;;1.77;;
76495;SDS011;65329;52.544;4.662;2022-12-29T14:11:22;13.30;;;2.38;;
76495;SDS011;65329;52.544;4.662;2022-12-29T14:13:54;9.57;;;2.30;;
76495;SDS011;65329;52.544;4.662;2022-12-29T14:19:16;7.63;;;1.45;;
76495;SDS011;65329;52.544;4.662;2022-12-29T14:21:50;8.98;;;2.03;;
76495;SDS011;65329;52.544;4.662;2022-12-29T14:24:41;6.38;;;1.48;;
76495;SDS011;65329;52.544;4.662;2022-12-29T14:34:48;6.90;;;2.78;;
76495;SDS011;65329;52.544;4.662;2022-12-29T14:39:47;16.10;;;1.98;;
76495;SDS011;65329;52.544;4.662;2022-12-29T14:42:15;15.50;;;2.05;;
76495;SDS011;65329;52.544;4.662;2022-12-29T14:47:47;14.52;;;2.45;;
76495;SDS011;65329;52.544;4.662;2022-12-29T14:50:15;16.15;;;2.60;;
76495;SDS011;65329;52.544;4.662;2022-12-29T14:55:44;14.63;;;3.05;;
76495;SDS011;65329;52.544;4.662;2022-12-29T15:00:48;26.17;;;3.70;;
76495;SDS011;65329;52.544;4.662;2022-12-29T15:06:04;11.25;;;2.50;;
76495;SDS011;65329;52.544;4.662;2022-12-29T15:08:36;12.57;;;2.45;;
76495;SDS011;65329;52.544;4.662;2022-12-29T15:11:09;17.73;;;2.30;;
76495;SDS011;65329;52.544;4.662;2022-12-29T15:13:41;11.93;;;2.50;;
76495;SDS011;65329;52.544;4.662;2022-12-29T15:16:23;11.20;;;2.03;;
76495;SDS011;65329;52.544;4.662;2022-12-29T15:19:03;12.32;;;2.20;;
76495;SDS011;65329;52.544;4.662;2022-12-29T15:21:32;13.77;;;2.70;;
76495;SDS011;65329;52.544;4.662;2022-12-29T15:24:02;12.77;;;2.40;;
76495;SDS011;65329;52.544;4.662;2022-12-29T15:26:39;11.40;;;1.77;;
76495;SDS011;65329;52.544;4.662;2022-12-29T15:29:28;13.10;;;3.65;;
76495;SDS011;65329;52.544;4.662;2022-12-29T15:32:24;10.95;;;2.10;;
76495;SDS011;65329;52.544;4.662;2022-12-29T15:34:53;11.07;;;1.95;;
76495;SDS011;65329;52.544;4.662;2022-12-29T15:37:26;13.35;;;2.10;;
76495;SDS011;65329;52.544;4.662;2022-12-29T15:39:55;16.23;;;2.13;;
76495;SDS011;65329;52.544;4.662;2022-12-29T15:42:25;10.85;;;1.77;;
76495;SDS011;65329;52.544;4.662;2022-12-29T15:44:53;17.95;;;3.15;;
76495;SDS011;65329;52.544;4.662;2022-12-29T15:47:35;8.98;;;2.00;;
76495;SDS011;65329;52.544;4.662;2022-12-29T15:50:03;13.55;;;2.22;;
76495;SDS011;65329;52.544;4.662;2022-12-29T15:52:33;11.82;;;2.25;;
76495;SDS011;65329;52.544;4.662;2022-12-29T15:55:00;10.00;;;2.65;;
76495;SDS011;65329;52.544;4.662;2022-12-29T15:57:29;10.48;;;1.75;;
76495;SDS011;65329;52.544;4.662;2022-12-29T15:59:58;10.25;;;2.00;;
76495;SDS011;65329;52.544;4.662;2022-12-29T16:02:26;11.23;;;1.83;;
76495;SDS011;65329;52.544;4.662;2022-12-29T16:04:54;8.52;;;1.70;;
76495;SDS011;65329;52.544;4.662;2022-12-29T16:07:41;13.60;;;1.77;;
76495;SDS011;65329;52.544;4.662;2022-12-29T16:10:26;10.10;;;2.10;;
76495;SDS011;65329;52.544;4.662;2022-12-29T16:13:04;8.10;;;1.63;;
76495;SDS011;65329;52.544;4.662;2022-12-29T16:15:51;11.52;;;2.88;;
76495;SDS011;65329;52.544;4.662;2022-12-29T16:18:29;10.77;;;2.55;;
76495;SDS011;65329;52.544;4.662;2022-12-29T16:21:00;9.35;;;2.70;;
76495;SDS011;65329;52.544;4.662;2022-12-29T16:23:30;11.18;;;3.63;;
76495;SDS011;65329;52.544;4.662;2022-12-29T16:25:58;12.32;;;2.88;;
76495;SDS011;65329;52.544;4.662;2022-12-29T16:28:36;9.90;;;2.30;;
76495;SDS011;65329;52.544;4.662;2022-12-29T16:31:24;11.88;;;3.10;;
76495;SDS011;65329;52.544;4.662;2022-12-29T16:34:10;10.75;;;2.58;;
76495;SDS011;65329;52.544;4.662;2022-12-29T16:37:01;11.07;;;3.17;;
76495;SDS011;65329;52.544;4.662;2022-12-29T16:39:51;11.38;;;2.25;;
76495;SDS011;65329;52.544;4.662;2022-12-29T16:42:33;13.95;;;2.95;;
76495;SDS011;65329;52.544;4.662;2022-12-29T16:50:33;10.75;;;3.17;;
76495;SDS011;65329;52.544;4.662;2022-12-29T16:53:01;12.57;;;3.53;;
76495;SDS011;65329;52.544;4.662;2022-12-29T16:55:30;10.68;;;3.90;;
76495;SDS011;65329;52.544;4.662;2022-12-29T16:57:58;12.70;;;4.25;;
76495;SDS011;65329;52.544;4.662;2022-12-29T17:00:27;11.38;;;4.03;;
76495;SDS011;65329;52.544;4.662;2022-12-29T17:02:58;16.02;;;3.58;;
76495;SDS011;65329;52.544;4.662;2022-12-29T17:05:27;12.98;;;3.47;;
76495;SDS011;65329;52.544;4.662;2022-12-29T17:07:53;17.30;;;4.28;;
76495;SDS011;65329;52.544;4.662;2022-12-29T17:10:23;13.30;;;3.83;;
76495;SDS011;65329;52.544;4.662;2022-12-29T17:13:10;15.32;;;3.30;;
76495;SDS011;65329;52.544;4.662;2022-12-29T17:15:37;10.30;;;3.53;;
76495;SDS011;65329;52.544;4.662;2022-12-29T17:18:04;13.88;;;3.38;;
76495;SDS011;65329;52.544;4.662;2022-12-29T17:20:38;11.82;;;3.03;;
76495;SDS011;65329;52.544;4.662;2022-12-29T17:23:10;11.45;;;3.28;;
76495;SDS011;65329;52.544;4.662;2022-12-29T17:25:49;8.20;;;2.50;;
76495;SDS011;65329;52.544;4.662;2022-12-29T17:28:21;15.75;;;2.72;;
76495;SDS011;65329;52.544;4.662;2022-12-29T17:30:53;12.73;;;2.25;;
76495;SDS011;65329;52.544;4.662;2022-12-29T17:33:24;9.52;;;2.47;;
76495;SDS011;65329;52.544;4.662;2022-12-29T17:35:50;9.52;;;2.38;;
76495;SDS011;65329;52.544;4.662;2022-12-29T17:38:28;10.90;;;2.47;;
76495;SDS011;65329;52.544;4.662;2022-12-29T17:40:55;9.52;;;2.28;;
76495;SDS011;65329;52.544;4.662;2022-12-29T17:43:23;19.08;;;4.15;;
76495;SDS011;65329;52.544;4.662;2022-12-29T17:45:55;9.50;;;2.63;;
76495;SDS011;65329;52.544;4.662;2022-12-29T17:48:23;11.85;;;2.55;;
76495;SDS011;65329;52.544;4.662;2022-12-29T17:50:51;9.13;;;2.58;;
76495;SDS011;65329;52.544;4.662;2022-12-29T17:53:20;10.43;;;2.50;;
76495;SDS011;65329;52.544;4.662;2022-12-29T17:55:50;9.98;;;3.15;;
76495;SDS011;65329;52.544;4.662;2022-12-29T17:58:17;10.07;;;2.83;;
76495;SDS011;65329;52.544;4.662;2022-12-29T18:00:48;11.15;;;2.88;;